createdAt,value
2019-02-07T00:00:55.142Z,100845.06
2019-02-07T00:03:22.998Z,100840.57
2019-02-07T00:05:50.467Z,100847.61
2019-02-07T00:08:18.332Z,100842.41
2019-02-07T00:10:46.213Z,100847.93
2019-02-07T00:13:13.874Z,100850.52
2019-02-07T00:15:41.620Z,100847.48
2019-02-07T00:18:09.046Z,100837.89
2019-02-07T00:20:36.423Z,100833.09
2019-02-07T00:23:04.110Z,100835.92
2019-02-07T00:25:32.595Z,100820.55
2019-02-07T00:27:59.850Z,100824.56
2019-02-07T00:30:27.856Z,100816.90
2019-02-07T00:32:55.506Z,100820.08
2019-02-07T00:35:22.688Z,100830.43
2019-02-07T00:37:50.164Z,100823.44
2019-02-07T00:40:18.322Z,100811.03
2019-02-07T00:42:46.474Z,100813.32
2019-02-07T00:45:14.360Z,100806.52
2019-02-07T00:47:42.126Z,100802.44
2019-02-07T00:50:11.764Z,100802.94
2019-02-07T00:52:39.730Z,100805.28
2019-02-07T00:55:10.196Z,100803.12
2019-02-07T00:57:37.977Z,100797.28
2019-02-07T01:00:10.562Z,100788.27
2019-02-07T01:02:38.436Z,100793.00
2019-02-07T01:05:07.585Z,100792.29
2019-02-07T01:07:35.374Z,100785.03
2019-02-07T01:10:05.061Z,100777.61
2019-02-07T01:12:32.790Z,100774.41
2019-02-07T01:15:02.099Z,100770.39
2019-02-07T01:17:37.243Z,100766.19
2019-02-07T01:20:07.185Z,100766.86
2019-02-07T01:22:34.809Z,100767.37
2019-02-07T01:25:03.149Z,100760.34
2019-02-07T01:27:31.554Z,100755.19
2019-02-07T01:29:59.260Z,100755.86
2019-02-07T01:32:26.654Z,100757.88
2019-02-07T01:34:53.909Z,100754.59
2019-02-07T01:37:21.804Z,100751.30
2019-02-07T01:39:49.161Z,100748.45
2019-02-07T01:42:16.427Z,100746.48
2019-02-07T01:44:44.579Z,100735.30
2019-02-07T01:47:12.739Z,100734.12
2019-02-07T01:49:40.693Z,100724.94
2019-02-07T01:52:08.837Z,100722.11
2019-02-07T01:54:36.367Z,100712.92
2019-02-07T01:57:03.839Z,100715.98
2019-02-07T01:59:31.098Z,100705.37
2019-02-07T02:01:59.114Z,100703.44
2019-02-07T02:04:27.166Z,100701.90
2019-02-07T02:06:54.706Z,100698.54
2019-02-07T02:09:22.058Z,100696.39
2019-02-07T02:11:49.658Z,100687.50
2019-02-07T02:14:17.427Z,100681.97
2019-02-07T02:16:45.199Z,100684.31
2019-02-07T02:19:13.049Z,100684.36
2019-02-07T02:21:40.476Z,100694.96
2019-02-07T02:24:08.841Z,100693.63
2019-02-07T02:26:36.664Z,100687.25
2019-02-07T02:29:04.318Z,100690.47
2019-02-07T02:31:31.875Z,100689.30
2019-02-07T02:33:59.256Z,100693.86
2019-02-07T02:36:27.427Z,100686.84
2019-02-07T02:38:54.882Z,100675.11
2019-02-07T02:41:25.817Z,100662.02
2019-02-07T02:43:53.185Z,100652.80
2019-02-07T02:46:20.928Z,100662.07
2019-02-07T02:48:48.974Z,100656.69
2019-02-07T02:51:16.434Z,100652.85
2019-02-07T02:53:44.291Z,100648.81
2019-02-07T02:56:12.010Z,100634.72
2019-02-07T02:58:39.809Z,100625.19
2019-02-07T03:01:26.945Z,100614.91
2019-02-07T03:04:23.259Z,100615.60
2019-02-07T03:07:20.235Z,100607.72
2019-02-07T03:10:13.271Z,100612.92
2019-02-07T03:12:52.210Z,100601.15
2019-02-07T03:15:49.209Z,100592.44
2019-02-07T03:18:30.123Z,100591.09
2019-02-07T03:21:23.460Z,100581.17
2019-02-07T03:24:12.999Z,100575.29
2019-02-07T03:26:55.022Z,100573.77
2019-02-07T03:29:41.263Z,100569.05
2019-02-07T03:32:31.600Z,100565.87
2019-02-07T03:35:33.770Z,100566.39
2019-02-07T03:38:19.126Z,100562.01
2019-02-07T03:41:07.248Z,100570.39
2019-02-07T03:43:55.006Z,100564.52
2019-02-07T03:46:42.141Z,100570.38
2019-02-07T03:49:29.405Z,100573.60
2019-02-07T03:52:28.354Z,100569.04
2019-02-07T03:55:10.119Z,100567.55
2019-02-07T03:57:59.782Z,100567.19
2019-02-07T04:00:47.115Z,100567.19
2019-02-07T04:03:30.912Z,100557.60
2019-02-07T04:06:18.929Z,100551.05
2019-02-07T04:09:08.303Z,100555.77
2019-02-07T04:12:03.693Z,100550.20
2019-02-07T04:14:45.700Z,100536.27
2019-02-07T04:17:34.981Z,100525.14
2019-02-07T04:20:22.049Z,100531.70
2019-02-07T04:23:09.154Z,100539.08
2019-02-07T04:25:48.003Z,100530.83
2019-02-07T04:28:40.122Z,100500.42
2019-02-07T04:31:26.267Z,100483.80
2019-02-07T04:34:22.328Z,100494.72
2019-02-07T04:37:21.484Z,100489.62
2019-02-07T04:40:07.040Z,100483.59
2019-02-07T04:42:56.984Z,100495.34
2019-02-07T04:45:42.638Z,100480.39
2019-02-07T04:48:30.194Z,100497.23
2019-02-07T04:51:09.919Z,100489.13
2019-02-07T04:53:59.622Z,100490.43
2019-02-07T04:56:45.976Z,100482.39
2019-02-07T04:59:23.074Z,100475.98
2019-02-07T05:02:01.710Z,100479.98
2019-02-07T05:04:55.188Z,100474.97
2019-02-07T05:07:34.994Z,100475.81
2019-02-07T05:10:23.484Z,100468.06
2019-02-07T05:13:13.231Z,100460.13
2019-02-07T05:16:06.029Z,100464.86
2019-02-07T05:18:49.669Z,100457.12
2019-02-07T05:21:37.189Z,100451.55
2019-02-07T05:24:23.267Z,100464.20
2019-02-07T05:27:10.296Z,100457.76
2019-02-07T05:30:15.412Z,100450.20
2019-02-07T05:33:05.477Z,100451.55
2019-02-07T05:35:49.204Z,100451.88
2019-02-07T05:38:29.886Z,100449.64
2019-02-07T05:41:15.035Z,100444.27
2019-02-07T05:44:11.203Z,100439.57
2019-02-07T05:46:56.773Z,100447.64
2019-02-07T05:49:35.645Z,100436.87
2019-02-07T05:52:20.020Z,100436.19
2019-02-07T05:55:07.031Z,100442.77
2019-02-07T05:57:52.934Z,100438.22
2019-02-07T06:00:32.235Z,100434.38
2019-02-07T06:03:24.972Z,100429.83
2019-02-07T06:06:16.274Z,100426.61
2019-02-07T06:09:06.393Z,100424.30
2019-02-07T06:12:12.285Z,100427.65
2019-02-07T06:14:59.506Z,100421.76
2019-02-07T06:17:49.495Z,100424.45
2019-02-07T06:20:48.985Z,100423.98
2019-02-07T06:23:41.607Z,100408.30
2019-02-07T06:26:18.459Z,100397.77
2019-02-07T06:29:08.649Z,100401.75
2019-02-07T06:31:49.655Z,100406.95
2019-02-07T06:34:41.352Z,100409.12
2019-02-07T06:37:31.400Z,100409.63
2019-02-07T06:40:17.035Z,100414.56
2019-02-07T06:43:04.219Z,100407.44
2019-02-07T06:45:41.522Z,100411.31
2019-02-07T06:48:27.764Z,100414.13
2019-02-07T06:51:14.522Z,100417.60
2019-02-07T06:54:07.542Z,100406.68
2019-02-07T06:56:52.930Z,100401.62
2019-02-07T06:59:43.132Z,100396.23
2019-02-07T07:02:49.110Z,100399.83
2019-02-07T07:05:34.518Z,100390.08
2019-02-07T07:08:10.474Z,100390.70
2019-02-07T07:11:00.757Z,100383.97
2019-02-07T07:13:50.389Z,100387.43
2019-02-07T07:16:36.596Z,100393.98
2019-02-07T07:19:26.723Z,100390.49
2019-02-07T07:22:25.933Z,100390.33
2019-02-07T07:25:14.427Z,100396.67
2019-02-07T07:28:10.816Z,100386.91
2019-02-07T07:30:57.142Z,100393.79
2019-02-07T07:33:35.811Z,100393.09
2019-02-07T07:36:14.039Z,100380.34
2019-02-07T07:39:00.635Z,100373.83
2019-02-07T07:41:59.922Z,100374.62
2019-02-07T07:44:36.367Z,100370.66
2019-02-07T07:47:36.192Z,100358.34
2019-02-07T07:50:36.820Z,100365.10
2019-02-07T07:53:36.442Z,100368.06
2019-02-07T07:56:29.592Z,100368.00
2019-02-07T07:59:23.661Z,100364.76
2019-02-07T08:02:14.397Z,100364.17
2019-02-07T08:05:05.158Z,100358.11
2019-02-07T08:07:57.367Z,100359.75
2019-02-07T08:10:50.852Z,100352.75
2019-02-07T08:13:37.160Z,100364.34
2019-02-07T08:16:36.702Z,100361.73
2019-02-07T08:19:25.171Z,100363.44
2019-02-07T08:22:13.220Z,100355.70
2019-02-07T08:25:18.949Z,100350.52
2019-02-07T08:28:21.209Z,100354.57
2019-02-07T08:31:11.094Z,100361.36
2019-02-07T08:34:04.620Z,100362.45
2019-02-07T08:36:59.354Z,100344.65
2019-02-07T08:39:41.513Z,100346.16
2019-02-07T08:42:31.506Z,100342.95
2019-02-07T08:45:24.428Z,100349.05
2019-02-07T08:48:17.201Z,100349.73
2019-02-07T08:50:58.767Z,100340.02
2019-02-07T08:53:43.020Z,100331.22
2019-02-07T08:56:28.626Z,100328.60
2019-02-07T08:59:15.069Z,100334.83
2019-02-07T09:02:05.974Z,100326.03
2019-02-07T09:04:51.670Z,100325.27
2019-02-07T09:07:44.245Z,100320.86
2019-02-07T09:10:27.622Z,100314.16
2019-02-07T09:13:12.375Z,100317.66
2019-02-07T09:16:08.166Z,100306.34
2019-02-07T09:19:10.201Z,100304.03
2019-02-07T09:21:59.977Z,100305.22
2019-02-07T09:24:47.970Z,100300.85
2019-02-07T09:27:45.475Z,100298.59
2019-02-07T09:30:34.813Z,100304.72
2019-02-07T09:33:23.622Z,100313.00
2019-02-07T09:36:19.971Z,100325.98
2019-02-07T09:39:13.988Z,100312.31
2019-02-07T09:41:52.530Z,100324.70
2019-02-07T09:44:38.199Z,100334.76
2019-02-07T09:47:16.712Z,100330.39
2019-02-07T09:50:03.748Z,100312.31
2019-02-07T09:52:48.657Z,100307.73
2019-02-07T09:55:39.188Z,100313.08
2019-02-07T09:58:36.914Z,100317.64
2019-02-07T10:01:29.925Z,100309.60
2019-02-07T10:04:12.386Z,100301.75
2019-02-07T10:06:59.508Z,100306.29
2019-02-07T10:09:55.415Z,100304.16
2019-02-07T10:12:39.373Z,100302.64
2019-02-07T10:15:21.015Z,100308.67
2019-02-07T10:18:20.832Z,100296.05
2019-02-07T10:20:59.936Z,100286.19
2019-02-07T10:23:55.985Z,100281.75
2019-02-07T10:26:46.235Z,100278.69
2019-02-07T10:29:32.371Z,100272.70
2019-02-07T10:32:22.369Z,100278.48
2019-02-07T10:35:22.440Z,100286.69
2019-02-07T10:37:51.111Z,100280.40
2019-02-07T10:40:44.127Z,100285.98
2019-02-07T10:43:34.543Z,100286.78
2019-02-07T10:46:10.510Z,100298.54
2019-02-07T10:48:57.530Z,100292.91
2019-02-07T10:51:56.243Z,100293.81
2019-02-07T10:54:42.559Z,100298.85
2019-02-07T10:57:41.724Z,100289.39
2019-02-07T11:00:33.976Z,100287.70
2019-02-07T11:03:23.963Z,100288.64
2019-02-07T11:06:09.567Z,100280.34
2019-02-07T11:09:17.730Z,100286.80
2019-02-07T11:12:03.999Z,100273.94
2019-02-07T11:14:51.366Z,100280.66
2019-02-07T11:17:30.565Z,100279.48
2019-02-07T11:20:14.511Z,100274.80
2019-02-07T11:23:04.315Z,100270.92
2019-02-07T11:25:51.723Z,100270.81
2019-02-07T11:28:29.822Z,100264.68
2019-02-07T11:31:10.261Z,100265.39
2019-02-07T11:33:57.810Z,100254.05
2019-02-07T11:36:36.702Z,100257.69
2019-02-07T11:39:33.044Z,100248.12
2019-02-07T11:42:19.881Z,100257.59
2019-02-07T11:45:13.573Z,100240.23
2019-02-07T11:48:02.667Z,100242.45
2019-02-07T11:50:55.942Z,100235.02
2019-02-07T11:53:29.729Z,100225.77
2019-02-07T11:56:19.938Z,100222.14
2019-02-07T11:59:07.510Z,100220.27
2019-02-07T12:01:53.416Z,100218.19
2019-02-07T12:04:34.699Z,100207.67
2019-02-07T12:07:34.081Z,100212.89
2019-02-07T12:10:30.903Z,100211.45
2019-02-07T12:13:18.424Z,100206.87
2019-02-07T12:16:08.506Z,100211.38
2019-02-07T12:19:03.707Z,100209.69
2019-02-07T12:21:37.906Z,100204.94
2019-02-07T12:24:27.804Z,100216.59
2019-02-07T12:27:19.287Z,100216.56
2019-02-07T12:29:59.337Z,100222.82
2019-02-07T12:32:46.467Z,100225.94
2019-02-07T12:35:42.374Z,100219.50
2019-02-07T12:38:23.534Z,100214.41
2019-02-07T12:40:59.454Z,100203.88
2019-02-07T12:43:45.503Z,100213.45
2019-02-07T12:46:44.939Z,100210.66
2019-02-07T12:49:29.263Z,100199.83
2019-02-07T12:52:15.031Z,100200.23
2019-02-07T12:55:05.902Z,100186.30
2019-02-07T12:57:49.002Z,100189.70
2019-02-07T13:00:55.484Z,100188.58
2019-02-07T13:03:45.155Z,100183.98
2019-02-07T13:06:30.587Z,100177.03
2019-02-07T13:09:17.933Z,100174.52
2019-02-07T13:12:17.171Z,100169.84
2019-02-07T13:14:54.825Z,100172.76
2019-02-07T13:17:43.963Z,100167.52
2019-02-07T13:20:31.132Z,100170.14
2019-02-07T13:23:30.302Z,100163.27
2019-02-07T13:26:03.839Z,100157.41
2019-02-07T13:29:09.745Z,100164.50
2019-02-07T13:31:50.249Z,100164.80
2019-02-07T13:34:31.050Z,100162.61
2019-02-07T13:37:12.007Z,100170.34
2019-02-07T13:40:02.279Z,100177.52
2019-02-07T13:42:44.294Z,100181.05
2019-02-07T13:45:31.979Z,100174.80
2019-02-07T13:48:27.847Z,100184.72
2019-02-07T13:51:20.062Z,100183.67
2019-02-07T13:54:09.658Z,100182.32
2019-02-07T13:56:55.633Z,100193.77
2019-02-07T13:59:47.882Z,100204.92
2019-02-07T14:02:48.045Z,100200.45
2019-02-07T14:05:40.842Z,100198.58
2019-02-07T14:08:38.458Z,100213.27
2019-02-07T14:11:24.906Z,100215.05
2019-02-07T14:14:02.435Z,100213.98
2019-02-07T14:16:45.657Z,100208.55
2019-02-07T14:19:44.853Z,100210.53
2019-02-07T14:22:26.341Z,100210.73
2019-02-07T14:25:05.777Z,100210.50
2019-02-07T14:28:01.455Z,100214.80
2019-02-07T14:30:47.022Z,100212.31
2019-02-07T14:33:52.663Z,100217.02
2019-02-07T14:36:31.499Z,100213.24
2019-02-07T14:39:23.778Z,100221.38
2019-02-07T14:42:19.575Z,100213.46
2019-02-07T14:44:57.365Z,100211.66
2019-02-07T14:47:24.779Z,100218.34
2019-02-07T14:49:52.410Z,100214.16
2019-02-07T14:52:20.721Z,100220.53
2019-02-07T14:54:48.357Z,100216.70
2019-02-07T14:57:16.590Z,100213.67
2019-02-07T14:59:44.714Z,100216.38
2019-02-07T15:02:12.577Z,100216.54
2019-02-07T15:04:40.098Z,100222.80
2019-02-07T15:07:07.689Z,100230.22
2019-02-07T15:09:35.916Z,100230.53
2019-02-07T15:12:03.979Z,100218.64
2019-02-07T15:14:32.131Z,100208.31
2019-02-07T15:17:00.294Z,100208.09
2019-02-07T15:19:28.197Z,100206.45
2019-02-07T15:21:55.559Z,100210.11
2019-02-07T15:24:23.381Z,100211.45
2019-02-07T15:26:51.496Z,100211.10
2019-02-07T15:29:19.502Z,100216.13
2019-02-07T15:31:46.955Z,100223.44
2019-02-07T15:34:14.623Z,100213.00
2019-02-07T15:36:45.544Z,100215.83
2019-02-07T15:39:15.459Z,100222.30
2019-02-07T15:41:43.314Z,100221.58
2019-02-07T15:44:11.330Z,100212.70
2019-02-07T15:46:39.715Z,100215.53
2019-02-07T15:49:07.398Z,100212.92
2019-02-07T15:51:35.191Z,100219.17
2019-02-07T15:54:03.569Z,100227.30
2019-02-07T15:56:31.299Z,100232.73
2019-02-07T15:59:30.538Z,100224.38
2019-02-07T16:02:11.511Z,100221.88
2019-02-07T16:04:42.162Z,100218.54
2019-02-07T16:07:10.274Z,100216.02
2019-02-07T16:09:38.205Z,100217.38
2019-02-07T16:12:06.004Z,100219.08
2019-02-07T16:14:33.489Z,100233.87
2019-02-07T16:17:01.370Z,100237.25
2019-02-07T16:19:30.023Z,100241.32
2019-02-07T16:21:57.379Z,100238.31
2019-02-07T16:24:25.210Z,100240.81
2019-02-07T16:26:52.615Z,100238.41
2019-02-07T16:29:19.826Z,100243.31
2019-02-07T16:31:48.024Z,100250.61
2019-02-07T16:34:18.708Z,100259.65
2019-02-07T16:36:46.142Z,100259.23
2019-02-07T16:39:14.607Z,100273.17
2019-02-07T16:41:42.326Z,100278.38
2019-02-07T16:44:09.894Z,100285.73
2019-02-07T16:46:37.412Z,100292.25
2019-02-07T16:49:05.177Z,100304.34
2019-02-07T16:51:32.983Z,100299.39
2019-02-07T16:54:00.963Z,100293.17
2019-02-07T16:56:28.829Z,100299.08
2019-02-07T16:58:56.673Z,100298.94
2019-02-07T17:01:24.637Z,100291.11
2019-02-07T17:03:52.924Z,100294.47
2019-02-07T17:06:21.366Z,100292.35
2019-02-07T17:08:49.077Z,100298.56
2019-02-07T17:11:16.749Z,100297.83
2019-02-07T17:13:47.962Z,100305.22
2019-02-07T17:16:16.210Z,100300.58
2019-02-07T17:18:43.485Z,100308.05
2019-02-07T17:21:13.047Z,100307.36
2019-02-07T17:23:40.813Z,100315.33
2019-02-07T17:26:08.994Z,100322.88
2019-02-07T17:28:36.458Z,100325.47
2019-02-07T17:31:05.088Z,100319.55
2019-02-07T17:33:32.754Z,100311.45
2019-02-07T17:36:00.226Z,100319.33
2019-02-07T17:38:28.441Z,100325.47
2019-02-07T17:40:56.167Z,100325.86
2019-02-07T17:43:23.547Z,100334.04
2019-02-07T17:45:53.098Z,100326.97
2019-02-07T17:48:20.916Z,100332.55
2019-02-07T17:50:48.695Z,100333.12
2019-02-07T17:53:16.733Z,100336.53
2019-02-07T17:55:44.373Z,100336.66
2019-02-07T17:58:11.851Z,100337.94
2019-02-07T18:00:56.759Z,100330.79
2019-02-07T18:03:30.822Z,100332.38
2019-02-07T18:05:58.268Z,100328.33
2019-02-07T18:08:26.363Z,100325.22
2019-02-07T18:10:54.685Z,100329.91
2019-02-07T18:13:23.130Z,100329.59
2019-02-07T18:15:50.439Z,100328.87
2019-02-07T18:18:18.572Z,100332.14
2019-02-07T18:20:46.704Z,100331.77
2019-02-07T18:23:14.668Z,100335.51
2019-02-07T18:25:42.545Z,100335.08
2019-02-07T18:28:10.730Z,100332.45
2019-02-07T18:30:38.507Z,100330.74
2019-02-07T18:33:06.118Z,100334.03
2019-02-07T18:35:34.399Z,100336.60
2019-02-07T18:38:02.086Z,100337.12
2019-02-07T18:40:29.607Z,100343.36
2019-02-07T18:42:57.286Z,100351.66
2019-02-07T18:45:24.970Z,100352.92
2019-02-07T18:47:52.721Z,100354.30
2019-02-07T18:50:27.294Z,100357.12
2019-02-07T18:52:55.148Z,100360.41
2019-02-07T18:55:22.951Z,100363.38
2019-02-07T18:57:50.838Z,100367.44
2019-02-07T19:00:22.544Z,100372.58
2019-02-07T19:02:50.714Z,100374.11
2019-02-07T19:05:23.273Z,100379.31
2019-02-07T19:07:52.253Z,100383.78
2019-02-07T19:10:20.977Z,100387.43
2019-02-07T19:12:49.066Z,100393.92
2019-02-07T19:15:39.120Z,100390.91
2019-02-07T19:18:07.341Z,100391.81
2019-02-07T19:20:34.856Z,100388.84
2019-02-07T19:23:03.738Z,100383.81
2019-02-07T19:25:32.208Z,100382.11
2019-02-07T19:28:00.137Z,100384.34
2019-02-07T19:30:29.759Z,100389.08
2019-02-07T19:32:58.089Z,100394.70
2019-02-07T19:35:25.909Z,100393.59
2019-02-07T19:37:53.939Z,100400.61
2019-02-07T19:40:21.526Z,100406.66
2019-02-07T19:42:49.194Z,100405.77
2019-02-07T19:45:17.593Z,100406.66
2019-02-07T19:47:45.731Z,100405.92
2019-02-07T19:50:19.895Z,100410.04
2019-02-07T19:52:48.215Z,100407.27
2019-02-07T19:55:18.847Z,100406.91
2019-02-07T19:57:46.633Z,100409.47
2019-02-07T20:00:20.877Z,100412.89
2019-02-07T20:02:49.195Z,100410.59
2019-02-07T20:05:16.896Z,100408.84
2019-02-07T20:07:44.563Z,100413.47
2019-02-07T20:10:15.895Z,100414.36
2019-02-07T20:12:44.415Z,100418.36
2019-02-07T20:15:18.863Z,100411.28
2019-02-07T20:17:46.793Z,100412.38
2019-02-07T20:20:14.940Z,100420.95
2019-02-07T20:22:43.229Z,100424.66
2019-02-07T20:25:12.407Z,100423.71
2019-02-07T20:27:40.764Z,100424.23
2019-02-07T20:30:24.217Z,100433.44
2019-02-07T20:32:52.106Z,100434.92
2019-02-07T20:35:21.541Z,100431.58
2019-02-07T20:37:49.681Z,100431.21
2019-02-07T20:40:19.732Z,100432.41
2019-02-07T20:42:47.415Z,100430.49
2019-02-07T20:45:15.450Z,100433.13
2019-02-07T20:47:43.128Z,100426.42
2019-02-07T20:50:14.865Z,100429.45
2019-02-07T20:52:42.381Z,100429.12
2019-02-07T20:55:10.548Z,100433.52
2019-02-07T20:57:38.228Z,100428.55
2019-02-07T21:00:12.073Z,100425.48
2019-02-07T21:02:39.831Z,100428.11
2019-02-07T21:05:09.275Z,100434.16
2019-02-07T21:07:37.359Z,100436.80
2019-02-07T21:10:06.545Z,100441.42
2019-02-07T21:12:34.103Z,100432.23
2019-02-07T21:15:01.622Z,100440.45
2019-02-07T21:17:29.667Z,100431.20
2019-02-07T21:19:56.833Z,100432.50
2019-02-07T21:22:24.789Z,100448.27
2019-02-07T21:24:52.541Z,100446.40
2019-02-07T21:27:20.227Z,100456.49
2019-02-07T21:29:47.758Z,100456.89
2019-02-07T21:32:15.205Z,100458.30
2019-02-07T21:34:42.802Z,100461.31
2019-02-07T21:37:10.465Z,100464.42
2019-02-07T21:39:38.038Z,100458.81
2019-02-07T21:42:06.190Z,100462.98
2019-02-07T21:44:33.842Z,100467.71
2019-02-07T21:47:01.713Z,100465.95
2019-02-07T21:49:29.482Z,100486.03
2019-02-07T21:51:56.922Z,100485.27
2019-02-07T21:54:24.655Z,100489.39
2019-02-07T21:56:52.036Z,100493.70
2019-02-07T21:59:19.875Z,100497.70
2019-02-07T22:01:47.473Z,100512.17
2019-02-07T22:04:15.245Z,100510.97
2019-02-07T22:06:42.779Z,100522.63
2019-02-07T22:09:12.857Z,100527.95
2019-02-07T22:11:40.477Z,100532.67
2019-02-07T22:14:08.658Z,100541.23
2019-02-07T22:16:36.729Z,100540.92
2019-02-07T22:19:04.240Z,100540.33
2019-02-07T22:21:31.788Z,100544.12
2019-02-07T22:23:59.614Z,100554.64
2019-02-07T22:26:27.486Z,100552.00
2019-02-07T22:28:55.204Z,100553.52
2019-02-07T22:31:22.776Z,100557.49
2019-02-07T22:33:50.794Z,100557.27
2019-02-07T22:36:22.262Z,100554.24
2019-02-07T22:38:50.062Z,100556.59
2019-02-07T22:41:17.490Z,100557.41
2019-02-07T22:43:45.442Z,100561.12
2019-02-07T22:46:13.337Z,100552.36
2019-02-07T22:48:40.880Z,100552.83
2019-02-07T22:51:09.025Z,100561.34
2019-02-07T22:53:36.991Z,100569.27
2019-02-07T22:56:04.708Z,100571.75
2019-02-07T22:58:32.422Z,100566.63
2019-02-07T23:01:24.938Z,100578.72
2019-02-07T23:04:05.489Z,100582.53
2019-02-07T23:06:32.749Z,100578.27
2019-02-07T23:09:00.220Z,100578.85
2019-02-07T23:11:27.870Z,100582.54
2019-02-07T23:13:55.720Z,100580.67
2019-02-07T23:16:23.493Z,100567.56
2019-02-07T23:18:54.977Z,100565.84
2019-02-07T23:21:22.713Z,100566.73
2019-02-07T23:23:50.925Z,100560.38
2019-02-07T23:26:18.938Z,100569.70
2019-02-07T23:28:46.618Z,100573.01
2019-02-07T23:31:14.321Z,100567.39
2019-02-07T23:33:42.171Z,100579.17
2019-02-07T23:36:10.708Z,100574.67
2019-02-07T23:38:38.359Z,100578.22
2019-02-07T23:41:07.594Z,100571.97
2019-02-07T23:43:35.334Z,100582.99
2019-02-07T23:46:04.781Z,100578.47
2019-02-07T23:48:32.556Z,100584.27
2019-02-07T23:51:01.122Z,100579.25
2019-02-07T23:53:28.459Z,100583.36
2019-02-07T23:55:55.953Z,100588.05
2019-02-07T23:58:23.763Z,100580.77
